createdAt,value
2019-03-09T00:01:02.516Z,9.57
2019-03-09T00:03:30.856Z,10.97
2019-03-09T00:05:59.228Z,16.80
2019-03-09T00:08:27.774Z,9.17
2019-03-09T00:10:56.167Z,11.40
2019-03-09T00:13:24.612Z,9.63
2019-03-09T00:15:53.113Z,18.27
2019-03-09T00:18:21.589Z,13.10
2019-03-09T00:20:50.029Z,13.90
2019-03-09T00:23:40.616Z,13.43
2019-03-09T00:26:16.807Z,10.13
2019-03-09T00:28:59.988Z,9.97
2019-03-09T00:31:35.194Z,9.70
2019-03-09T00:34:03.710Z,11.73
2019-03-09T00:36:38.199Z,10.57
2019-03-09T00:39:06.813Z,7.73
2019-03-09T00:41:35.203Z,10.90
2019-03-09T00:44:03.746Z,10.13
2019-03-09T00:46:32.224Z,9.97
2019-03-09T00:49:02.064Z,9.17
2019-03-09T00:51:30.559Z,9.63
2019-03-09T00:53:59.449Z,13.27
2019-03-09T00:56:27.966Z,12.60
2019-03-09T00:58:56.416Z,10.00
2019-03-09T01:01:24.896Z,15.30
2019-03-09T01:03:53.348Z,12.13
2019-03-09T01:06:21.784Z,11.30
2019-03-09T01:08:50.256Z,15.20
2019-03-09T01:11:18.657Z,12.50
2019-03-09T01:13:47.035Z,8.53
2019-03-09T01:16:15.524Z,9.33
2019-03-09T01:18:43.970Z,8.83
2019-03-09T01:21:12.441Z,13.50
2019-03-09T01:23:41.000Z,9.80
2019-03-09T01:26:09.469Z,8.90
2019-03-09T01:28:37.960Z,12.67
2019-03-09T01:31:06.564Z,13.63
2019-03-09T01:33:35.012Z,9.17
2019-03-09T01:36:03.575Z,11.90
2019-03-09T01:38:32.102Z,10.60
2019-03-09T01:41:00.536Z,14.50
2019-03-09T01:43:29.000Z,12.83
2019-03-09T01:45:57.464Z,10.90
2019-03-09T01:48:25.844Z,6.90
2019-03-09T01:50:54.384Z,10.50
2019-03-09T01:53:22.979Z,8.20
2019-03-09T01:55:51.450Z,12.20
2019-03-09T01:58:19.916Z,13.20
2019-03-09T02:00:48.364Z,9.97
2019-03-09T02:03:16.860Z,14.83
2019-03-09T02:05:45.421Z,11.53
2019-03-09T02:08:13.909Z,14.63
2019-03-09T02:10:42.408Z,9.77
2019-03-09T02:13:10.780Z,11.17
2019-03-09T02:15:39.336Z,10.70
2019-03-09T02:18:07.791Z,11.77
2019-03-09T02:20:36.236Z,12.13
2019-03-09T02:23:04.723Z,22.03
2019-03-09T02:25:33.167Z,12.20
2019-03-09T02:28:01.631Z,14.57
2019-03-09T02:30:30.031Z,17.40
2019-03-09T02:32:58.492Z,10.00
2019-03-09T02:35:27.021Z,15.27
2019-03-09T02:37:57.252Z,10.83
2019-03-09T02:40:26.284Z,13.40
2019-03-09T02:42:54.769Z,13.43
2019-03-09T02:45:23.593Z,10.83
2019-03-09T02:47:52.088Z,12.23
2019-03-09T02:50:20.534Z,15.47
2019-03-09T02:52:49.775Z,11.77
2019-03-09T02:55:18.269Z,9.97
2019-03-09T02:57:46.766Z,12.00
2019-03-09T03:00:16.052Z,13.90
2019-03-09T03:02:47.982Z,13.33
2019-03-09T03:05:16.551Z,13.73
2019-03-09T03:07:45.076Z,11.17
2019-03-09T03:10:13.587Z,10.90
2019-03-09T03:12:42.106Z,10.30
2019-03-09T03:15:10.720Z,10.13
2019-03-09T03:17:39.217Z,12.70
2019-03-09T03:20:07.921Z,13.27
2019-03-09T03:22:36.587Z,22.30
2019-03-09T03:25:05.189Z,12.87
2019-03-09T03:27:33.681Z,13.33
2019-03-09T03:30:02.275Z,10.83
2019-03-09T03:32:33.888Z,14.40
2019-03-09T03:35:02.451Z,11.03
2019-03-09T03:37:31.232Z,10.60
2019-03-09T03:39:59.700Z,10.90
2019-03-09T03:42:28.161Z,10.33
2019-03-09T03:44:56.804Z,10.20
2019-03-09T03:47:25.243Z,15.77
2019-03-09T03:49:53.787Z,13.03
2019-03-09T03:52:22.441Z,10.67
2019-03-09T03:54:50.879Z,15.27
2019-03-09T03:57:19.321Z,12.63
2019-03-09T03:59:48.093Z,15.30
2019-03-09T04:02:16.650Z,12.53
2019-03-09T04:04:45.124Z,11.80
2019-03-09T04:07:13.820Z,14.03
2019-03-09T04:09:42.421Z,14.80
2019-03-09T04:12:10.946Z,11.57
2019-03-09T04:14:39.433Z,16.37
2019-03-09T04:17:07.888Z,13.40
2019-03-09T04:19:36.411Z,13.00
2019-03-09T04:22:04.977Z,14.33
2019-03-09T04:24:33.522Z,13.90
2019-03-09T04:27:02.035Z,14.10
2019-03-09T04:29:30.527Z,15.10
2019-03-09T04:31:58.960Z,13.00
2019-03-09T04:34:27.438Z,16.63
2019-03-09T04:36:59.024Z,15.10
2019-03-09T04:39:27.521Z,12.90
2019-03-09T04:41:57.007Z,16.23
2019-03-09T04:44:27.165Z,15.47
2019-03-09T04:46:55.819Z,20.10
2019-03-09T04:49:24.267Z,20.53
2019-03-09T04:51:52.712Z,18.47
2019-03-09T04:54:21.099Z,20.57
2019-03-09T04:56:49.626Z,16.00
2019-03-09T04:59:18.047Z,18.63
2019-03-09T05:01:46.482Z,20.43
2019-03-09T05:04:32.816Z,18.20
2019-03-09T05:07:01.209Z,18.67
2019-03-09T05:09:51.743Z,21.53
2019-03-09T05:12:20.192Z,20.40
2019-03-09T05:14:48.680Z,20.57
2019-03-09T05:17:17.361Z,20.60
2019-03-09T05:19:46.344Z,17.77
2019-03-09T05:22:14.838Z,19.27
2019-03-09T05:24:43.245Z,16.47
2019-03-09T05:27:11.647Z,18.40
2019-03-09T05:29:40.100Z,15.90
2019-03-09T05:32:08.572Z,15.20
2019-03-09T05:34:37.102Z,16.63
2019-03-09T05:37:07.160Z,22.03
2019-03-09T05:39:35.661Z,17.90
2019-03-09T05:42:04.131Z,17.13
2019-03-09T05:44:32.519Z,18.00
2019-03-09T05:47:01.012Z,16.93
2019-03-09T05:49:29.386Z,17.17
2019-03-09T05:52:15.708Z,18.87
2019-03-09T05:54:44.089Z,17.77
2019-03-09T05:57:12.474Z,18.67
2019-03-09T05:59:40.979Z,17.93
2019-03-09T06:02:09.454Z,20.33
2019-03-09T06:04:37.911Z,19.57
2019-03-09T06:07:06.439Z,17.50
2019-03-09T06:09:34.956Z,19.67
2019-03-09T06:12:10.465Z,20.03
2019-03-09T06:14:38.848Z,20.07
2019-03-09T06:17:07.331Z,19.33
2019-03-09T06:19:35.840Z,18.27
2019-03-09T06:22:04.303Z,18.43
2019-03-09T06:24:32.748Z,20.63
2019-03-09T06:27:01.424Z,24.70
2019-03-09T06:29:29.909Z,24.97
2019-03-09T06:32:16.568Z,20.77
2019-03-09T06:34:44.979Z,25.27
2019-03-09T06:37:15.890Z,26.17
2019-03-09T06:39:46.261Z,21.50
2019-03-09T06:42:20.313Z,20.83
2019-03-09T06:44:48.790Z,20.10
2019-03-09T06:47:17.243Z,22.80
2019-03-09T06:49:45.729Z,21.10
2019-03-09T06:52:14.218Z,23.93
2019-03-09T06:54:42.696Z,20.90
2019-03-09T06:57:14.033Z,22.60
2019-03-09T06:59:41.381Z,20.17
2019-03-09T07:02:09.862Z,18.27
2019-03-09T07:04:38.367Z,18.23
2019-03-09T07:07:06.800Z,19.10
2019-03-09T07:09:35.187Z,19.60
2019-03-09T07:12:03.628Z,19.57
2019-03-09T07:15:09.581Z,17.27
2019-03-09T07:17:37.958Z,19.20
2019-03-09T07:20:12.602Z,21.93
2019-03-09T07:22:37.136Z,22.37
2019-03-09T07:25:05.847Z,17.37
2019-03-09T07:27:34.272Z,20.07
2019-03-09T07:30:02.816Z,21.73
2019-03-09T07:32:31.212Z,24.67
2019-03-09T07:34:59.675Z,19.47
2019-03-09T07:37:29.085Z,21.03
2019-03-09T07:39:57.650Z,22.50
2019-03-09T07:42:26.156Z,23.97
2019-03-09T07:44:54.758Z,21.70
2019-03-09T07:47:23.246Z,19.93
2019-03-09T07:49:51.748Z,22.93
2019-03-09T07:52:30.554Z,19.10
2019-03-09T07:54:59.152Z,18.93
2019-03-09T07:57:27.727Z,20.40
2019-03-09T07:59:56.186Z,20.93
2019-03-09T08:02:24.705Z,19.67
2019-03-09T08:04:53.176Z,19.10
2019-03-09T08:07:21.717Z,18.27
2019-03-09T08:09:50.291Z,20.40
2019-03-09T08:12:18.750Z,18.67
2019-03-09T08:14:47.213Z,16.70
2019-03-09T08:17:15.671Z,20.97
2019-03-09T08:19:44.176Z,18.47
2019-03-09T08:22:12.664Z,19.07
2019-03-09T08:24:41.074Z,15.97
2019-03-09T08:27:09.604Z,20.77
2019-03-09T08:29:38.416Z,19.57
2019-03-09T08:32:06.901Z,18.90
2019-03-09T08:34:35.320Z,21.00
2019-03-09T08:37:03.811Z,20.03
2019-03-09T08:39:32.247Z,22.10
2019-03-09T08:42:02.831Z,21.47
2019-03-09T08:44:31.286Z,16.47
2019-03-09T08:46:59.796Z,19.17
2019-03-09T08:49:28.310Z,16.50
2019-03-09T08:51:57.045Z,19.40
2019-03-09T08:54:25.497Z,18.77
2019-03-09T08:56:53.964Z,18.47
2019-03-09T08:59:22.533Z,16.37
2019-03-09T09:01:51.156Z,21.87
2019-03-09T09:04:19.554Z,16.33
2019-03-09T09:06:48.458Z,16.83
2019-03-09T09:09:16.857Z,17.37
2019-03-09T09:11:45.318Z,16.37
2019-03-09T09:14:14.181Z,17.10
2019-03-09T09:16:42.649Z,19.63
2019-03-09T09:19:44.203Z,17.60
2019-03-09T09:22:12.592Z,18.87
2019-03-09T09:24:41.046Z,17.33
2019-03-09T09:27:09.540Z,18.83
2019-03-09T09:29:38.140Z,17.57
2019-03-09T09:32:06.694Z,19.30
2019-03-09T09:34:35.121Z,19.47
2019-03-09T09:37:03.496Z,17.30
2019-03-09T09:39:32.017Z,20.17
2019-03-09T09:42:00.504Z,20.87
2019-03-09T09:44:28.954Z,16.80
2019-03-09T09:46:57.416Z,16.70
2019-03-09T09:49:25.916Z,18.10
2019-03-09T09:51:54.292Z,18.37
2019-03-09T09:54:22.841Z,15.60
2019-03-09T09:56:51.328Z,14.83
2019-03-09T09:59:21.137Z,16.03
2019-03-09T10:01:49.632Z,13.87
2019-03-09T10:04:18.039Z,14.90
2019-03-09T10:06:46.492Z,19.87
2019-03-09T10:09:14.946Z,15.37
2019-03-09T10:11:43.912Z,12.30
2019-03-09T10:14:13.412Z,13.90
2019-03-09T10:16:41.788Z,14.57
2019-03-09T10:19:11.255Z,13.97
2019-03-09T10:21:40.122Z,13.40
2019-03-09T10:24:08.572Z,13.23
2019-03-09T10:26:36.989Z,16.37
2019-03-09T10:29:05.384Z,13.90
2019-03-09T10:31:33.923Z,13.27
2019-03-09T10:34:02.401Z,11.23
2019-03-09T10:36:30.785Z,12.63
2019-03-09T10:38:59.316Z,11.00
2019-03-09T10:41:27.801Z,12.73
2019-03-09T10:43:56.240Z,9.47
2019-03-09T10:46:24.664Z,9.87
2019-03-09T10:48:53.088Z,10.37
2019-03-09T10:51:22.631Z,11.83
2019-03-09T10:53:51.195Z,12.07
2019-03-09T10:56:19.696Z,10.00
2019-03-09T10:58:51.303Z,7.60
2019-03-09T11:01:19.791Z,6.70
2019-03-09T11:03:48.335Z,9.30
2019-03-09T11:06:16.781Z,10.53
2019-03-09T11:08:45.192Z,10.87
2019-03-09T11:11:13.730Z,12.30
2019-03-09T11:13:51.447Z,9.53
2019-03-09T11:16:12.672Z,9.73
2019-03-09T11:18:41.180Z,15.30
2019-03-09T11:21:09.653Z,10.80
2019-03-09T11:23:38.057Z,10.53
2019-03-09T11:26:06.690Z,12.53
2019-03-09T11:28:35.163Z,10.33
2019-03-09T11:31:03.674Z,8.87
2019-03-09T11:33:32.114Z,9.53
2019-03-09T11:36:00.571Z,8.67
2019-03-09T11:38:29.044Z,9.30
2019-03-09T11:41:00.615Z,6.60
2019-03-09T11:43:27.825Z,6.43
2019-03-09T11:46:00.352Z,10.53
2019-03-09T11:48:28.822Z,8.50
2019-03-09T11:50:57.384Z,6.47
2019-03-09T11:53:25.820Z,8.00
2019-03-09T11:55:54.352Z,4.53
2019-03-09T11:58:22.819Z,13.13
2019-03-09T12:00:51.517Z,7.97
2019-03-09T12:03:20.057Z,10.83
2019-03-09T12:05:48.517Z,9.57
2019-03-09T12:08:52.507Z,5.73
2019-03-09T12:11:51.189Z,9.13
2019-03-09T12:14:19.685Z,8.23
2019-03-09T12:16:48.216Z,9.47
2019-03-09T12:19:16.739Z,11.93
2019-03-09T12:21:46.241Z,8.70
2019-03-09T12:24:17.728Z,13.33
2019-03-09T12:26:45.080Z,10.63
2019-03-09T12:29:13.531Z,10.43
2019-03-09T12:31:41.980Z,7.40
2019-03-09T12:34:12.466Z,11.07
2019-03-09T12:36:41.057Z,9.60
2019-03-09T12:39:09.666Z,7.30
2019-03-09T12:41:39.262Z,6.77
2019-03-09T12:44:07.808Z,6.60
2019-03-09T12:46:36.284Z,8.67
2019-03-09T12:49:04.744Z,10.27
2019-03-09T12:51:33.251Z,10.90
2019-03-09T12:54:01.623Z,9.57
2019-03-09T12:56:30.058Z,8.47
2019-03-09T12:58:58.595Z,9.17
2019-03-09T13:01:27.234Z,5.73
2019-03-09T13:03:55.696Z,7.20
2019-03-09T13:06:24.180Z,10.47
2019-03-09T13:08:52.746Z,6.40
2019-03-09T13:11:21.257Z,6.10
2019-03-09T13:13:49.731Z,5.87
2019-03-09T13:16:18.252Z,5.10
2019-03-09T13:18:46.658Z,8.30
2019-03-09T13:21:15.236Z,6.33
2019-03-09T13:23:43.811Z,7.03
2019-03-09T13:26:12.264Z,6.27
2019-03-09T13:28:40.767Z,4.00
2019-03-09T13:31:09.336Z,7.33
2019-03-09T13:33:38.874Z,9.80
2019-03-09T13:36:07.605Z,6.50
2019-03-09T13:38:36.077Z,10.07
2019-03-09T13:41:04.545Z,10.50
2019-03-09T13:43:33.079Z,10.00
2019-03-09T13:46:01.570Z,11.57
2019-03-09T13:48:29.947Z,12.00
2019-03-09T13:50:58.434Z,11.23
2019-03-09T13:53:26.817Z,14.83
2019-03-09T13:55:55.301Z,11.47
2019-03-09T13:58:24.080Z,14.97
2019-03-09T14:00:52.529Z,14.93
2019-03-09T14:03:21.076Z,14.57
2019-03-09T14:05:49.640Z,9.10
2019-03-09T14:08:18.120Z,16.40
2019-03-09T14:10:46.747Z,15.53
2019-03-09T14:13:15.594Z,16.97
2019-03-09T14:15:44.059Z,21.17
2019-03-09T14:18:12.552Z,13.90
2019-03-09T14:20:41.076Z,15.10
2019-03-09T14:23:09.530Z,15.87
2019-03-09T14:25:37.970Z,16.93
2019-03-09T14:28:06.481Z,11.70
2019-03-09T14:30:35.065Z,18.30
2019-03-09T14:33:05.739Z,12.30
2019-03-09T14:35:34.205Z,11.50
2019-03-09T14:38:02.717Z,9.73
2019-03-09T14:40:32.302Z,16.43
2019-03-09T14:43:00.781Z,13.87
2019-03-09T14:45:29.264Z,12.40
2019-03-09T14:47:57.824Z,11.77
2019-03-09T14:50:26.420Z,13.80
2019-03-09T14:52:54.940Z,16.50
2019-03-09T14:55:23.463Z,8.70
2019-03-09T14:57:51.996Z,9.43
2019-03-09T15:00:20.608Z,11.57
2019-03-09T15:02:50.107Z,10.80
2019-03-09T15:05:18.747Z,12.13
2019-03-09T15:07:47.259Z,10.93
2019-03-09T15:10:16.164Z,7.87
2019-03-09T15:12:44.741Z,8.90
2019-03-09T15:15:13.366Z,9.97
2019-03-09T15:17:42.151Z,10.77
2019-03-09T15:20:11.736Z,13.60
2019-03-09T15:22:40.264Z,12.77
2019-03-09T15:25:09.112Z,21.20
2019-03-09T15:27:37.813Z,18.17
2019-03-09T15:30:06.876Z,14.07
2019-03-09T15:32:35.358Z,18.80
2019-03-09T15:35:04.260Z,18.37
2019-03-09T15:37:32.889Z,28.73
2019-03-09T15:40:01.445Z,20.73
2019-03-09T15:42:30.016Z,17.23
2019-03-09T15:44:58.515Z,8.77
2019-03-09T15:47:27.033Z,14.17
2019-03-09T15:49:55.506Z,8.87
2019-03-09T15:52:23.960Z,6.50
2019-03-09T15:54:52.713Z,10.97
2019-03-09T15:57:21.222Z,10.27
2019-03-09T15:59:49.687Z,9.27
2019-03-09T16:02:18.126Z,10.33
2019-03-09T16:04:46.626Z,7.00
2019-03-09T16:07:15.093Z,13.07
2019-03-09T16:09:43.604Z,8.77
2019-03-09T16:12:12.223Z,8.80
2019-03-09T16:14:40.805Z,10.93
2019-03-09T16:17:09.152Z,6.23
2019-03-09T16:19:39.129Z,5.33
2019-03-09T16:22:07.601Z,6.17
2019-03-09T16:24:36.142Z,4.60
2019-03-09T16:27:04.632Z,4.07
2019-03-09T16:29:33.049Z,7.40
2019-03-09T16:32:02.556Z,2.43
2019-03-09T16:34:30.992Z,6.50
2019-03-09T16:37:04.477Z,3.10
2019-03-09T16:39:32.911Z,4.80
2019-03-09T16:42:02.418Z,4.00
2019-03-09T16:44:31.106Z,6.00
2019-03-09T16:46:59.458Z,8.10
2019-03-09T16:49:27.837Z,6.63
2019-03-09T16:51:59.468Z,5.77
2019-03-09T16:54:28.915Z,8.67
2019-03-09T16:56:58.637Z,6.27
2019-03-09T16:59:27.098Z,6.10
2019-03-09T17:01:55.534Z,5.17
2019-03-09T17:04:25.500Z,5.43
2019-03-09T17:06:58.063Z,8.83
2019-03-09T17:09:26.491Z,6.90
2019-03-09T17:11:54.970Z,7.07
2019-03-09T17:14:23.592Z,12.63
2019-03-09T17:16:52.111Z,6.67
2019-03-09T17:19:20.568Z,11.07
2019-03-09T17:21:51.407Z,8.93
2019-03-09T17:24:19.980Z,5.93
2019-03-09T17:26:48.347Z,6.93
2019-03-09T17:29:16.795Z,8.40
2019-03-09T17:31:45.340Z,9.90
2019-03-09T17:34:13.796Z,6.47
2019-03-09T17:36:42.229Z,11.43
2019-03-09T17:39:10.692Z,9.67
2019-03-09T17:41:41.163Z,8.27
2019-03-09T17:44:09.611Z,12.03
2019-03-09T17:46:38.011Z,13.37
2019-03-09T17:49:06.380Z,8.53
2019-03-09T17:51:34.898Z,11.33
2019-03-09T17:54:03.351Z,14.23
2019-03-09T17:56:31.772Z,10.50
2019-03-09T17:59:00.603Z,9.47
2019-03-09T18:01:29.059Z,10.13
2019-03-09T18:03:59.557Z,10.57
2019-03-09T18:06:29.986Z,9.77
2019-03-09T18:08:58.479Z,10.97
2019-03-09T18:11:26.968Z,10.47
2019-03-09T18:14:06.352Z,13.40
2019-03-09T18:16:26.719Z,10.63
2019-03-09T18:18:55.145Z,11.47
2019-03-09T18:21:23.819Z,10.37
2019-03-09T18:23:52.281Z,12.20
2019-03-09T18:26:20.748Z,11.90
2019-03-09T18:28:49.127Z,13.30
2019-03-09T18:31:17.692Z,12.20
2019-03-09T18:33:46.203Z,10.90
2019-03-09T18:36:14.694Z,11.67
2019-03-09T18:38:43.075Z,10.53
2019-03-09T18:41:14.635Z,9.13
2019-03-09T18:43:43.104Z,10.40
2019-03-09T18:46:13.961Z,10.30
2019-03-09T18:48:42.571Z,17.67
2019-03-09T18:51:11.025Z,8.40
2019-03-09T18:53:39.459Z,16.07
2019-03-09T18:56:08.941Z,12.78
2019-03-09T18:58:37.393Z,7.87
2019-03-09T19:01:05.833Z,13.63
2019-03-09T19:03:34.331Z,11.30
2019-03-09T19:06:03.297Z,10.03
2019-03-09T19:08:32.694Z,10.47
2019-03-09T19:11:01.211Z,13.17
2019-03-09T19:13:29.779Z,11.43
2019-03-09T19:15:58.159Z,9.43
2019-03-09T19:18:26.706Z,10.13
2019-03-09T19:20:55.164Z,11.23
2019-03-09T19:23:23.603Z,12.03
2019-03-09T19:25:52.107Z,9.00
2019-03-09T19:28:20.596Z,7.97
2019-03-09T19:30:50.136Z,8.67
2019-03-09T19:33:18.812Z,10.67
2019-03-09T19:35:47.861Z,9.80
2019-03-09T19:38:22.423Z,7.10
2019-03-09T19:40:52.947Z,9.37
2019-03-09T19:43:24.422Z,11.33
2019-03-09T19:45:53.005Z,8.63
2019-03-09T19:48:21.428Z,11.70
2019-03-09T19:50:49.920Z,11.10
2019-03-09T19:53:18.357Z,11.03
2019-03-09T19:55:46.940Z,6.67
2019-03-09T19:58:15.348Z,8.47
2019-03-09T20:00:43.832Z,8.33
2019-03-09T20:03:12.329Z,12.13
2019-03-09T20:05:40.767Z,11.40
2019-03-09T20:08:09.323Z,10.00
2019-03-09T20:10:37.959Z,13.00
2019-03-09T20:13:06.608Z,7.43
2019-03-09T20:15:35.263Z,11.77
2019-03-09T20:18:03.803Z,10.93
2019-03-09T20:20:32.317Z,11.55
2019-03-09T20:23:00.966Z,11.57
2019-03-09T20:25:29.520Z,7.60
2019-03-09T20:28:05.042Z,10.33
2019-03-09T20:30:33.583Z,13.90
2019-03-09T20:33:02.067Z,7.23
2019-03-09T20:35:38.756Z,12.07
2019-03-09T20:38:07.688Z,13.70
2019-03-09T20:40:37.223Z,8.80
2019-03-09T20:43:05.805Z,13.37
2019-03-09T20:45:34.425Z,9.13
2019-03-09T20:48:02.943Z,16.57
2019-03-09T20:50:32.560Z,14.47
2019-03-09T20:53:01.177Z,16.87
2019-03-09T20:55:29.724Z,14.97
2019-03-09T20:58:02.970Z,11.07
2019-03-09T21:00:33.475Z,12.63
2019-03-09T21:03:02.976Z,12.53
2019-03-09T21:05:31.502Z,8.03
2019-03-09T21:07:59.970Z,17.17
2019-03-09T21:10:28.431Z,20.17
2019-03-09T21:12:58.121Z,11.63
2019-03-09T21:15:26.589Z,16.67
2019-03-09T21:17:57.147Z,13.07
2019-03-09T21:20:25.625Z,15.53
2019-03-09T21:22:56.732Z,16.83
2019-03-09T21:25:25.156Z,15.73
2019-03-09T21:27:53.796Z,18.93
2019-03-09T21:30:22.403Z,17.57
2019-03-09T21:32:50.780Z,10.63
2019-03-09T21:35:19.328Z,12.67
2019-03-09T21:37:47.760Z,18.10
2019-03-09T21:40:20.015Z,11.30
2019-03-09T21:42:48.485Z,12.03
2019-03-09T21:45:16.933Z,14.17
2019-03-09T21:47:45.287Z,20.77
2019-03-09T21:50:14.082Z,19.27
2019-03-09T21:52:42.691Z,14.63
2019-03-09T21:55:11.200Z,13.30
2019-03-09T21:57:39.640Z,20.07
2019-03-09T22:00:08.779Z,14.30
2019-03-09T22:02:37.164Z,14.97
2019-03-09T22:05:12.043Z,12.47
2019-03-09T22:07:40.507Z,10.77
2019-03-09T22:10:09.067Z,15.97
2019-03-09T22:12:37.595Z,11.87
2019-03-09T22:15:06.576Z,13.20
2019-03-09T22:17:35.138Z,13.77
2019-03-09T22:20:03.676Z,9.70
2019-03-09T22:22:32.120Z,10.83
2019-03-09T22:25:02.623Z,11.70
2019-03-09T22:27:31.332Z,11.93
2019-03-09T22:29:59.940Z,8.03
2019-03-09T22:32:28.423Z,12.60
2019-03-09T22:34:56.807Z,12.60
2019-03-09T22:37:25.226Z,9.13
2019-03-09T22:39:53.647Z,7.87
2019-03-09T22:42:22.009Z,9.03
2019-03-09T22:44:50.500Z,9.80
2019-03-09T22:47:19.047Z,13.40
2019-03-09T22:49:47.417Z,16.37
2019-03-09T22:52:15.811Z,15.03
2019-03-09T22:54:46.372Z,12.33
2019-03-09T22:57:14.787Z,9.83
2019-03-09T22:59:43.223Z,12.77
2019-03-09T23:02:11.596Z,14.17
2019-03-09T23:04:40.005Z,10.40
2019-03-09T23:07:08.495Z,14.37
2019-03-09T23:09:36.838Z,9.53
2019-03-09T23:12:07.606Z,9.73
2019-03-09T23:14:36.095Z,11.07
2019-03-09T23:17:04.503Z,10.40
2019-03-09T23:19:33.011Z,14.17
2019-03-09T23:22:02.484Z,14.13
2019-03-09T23:24:30.911Z,10.63
2019-03-09T23:26:59.375Z,13.83
2019-03-09T23:29:27.839Z,8.60
2019-03-09T23:31:56.191Z,11.17
2019-03-09T23:34:24.599Z,13.10
2019-03-09T23:36:53.019Z,8.37
2019-03-09T23:39:21.464Z,13.30
2019-03-09T23:41:49.987Z,13.53
2019-03-09T23:44:18.412Z,16.53
2019-03-09T23:46:47.018Z,16.87
2019-03-09T23:49:15.664Z,13.70
2019-03-09T23:51:44.067Z,14.23
2019-03-09T23:54:12.516Z,15.70
2019-03-09T23:56:41.015Z,18.77
2019-03-09T23:59:09.446Z,25.33
